Impacts TAF Board INFO
FOR SITUATIONAL AWARENESS. NOT TO BE USED FOR FLIGHT PLANNING PURPOSES.
IDs:

KLAX - Los Angeles Intl, CA, US

Issued at 2121 UTC 21 Nov 2017
Updated at 2309 UTC 21 Nov 2017
Potential Impact None Slight Moderate High
Time<<23/00Z 23/01Z 23/02Z 23/03Z 23/04Z 23/05Z 23/06Z 23/07Z 23/08Z 23/09Z 23/10Z 23/11Z 23/12Z
Type
VIS
CIG
Cover
FltCat
WX
WDir
WSpd
WGst

Raw TAF
KLAX 212121Z 2121/2224 27012KT P6SM BKN250
  FM220400 VRB03KT P6SM SCT250
  FM221400 05005KT P6SM SKC
  FM222100 27008KT P6SM SKC


METAR Board
Radar Display
Forecast Discussion

FOR SITUATIONAL AWARENESS. NOT TO BE USED FOR FLIGHT PLANNING PURPOSES.